ニジネヴァルトフスク の空港の天気 - METARとTAF

Nizhnevartovsk ( USNN / NJC ) - ロシア ニジネヴァルトフスク
飛行場実況気象(Metar)
観測時間10/16 12:30 YEKT (10/16 07:30 UTC)
風向・風速西南西 3m/s
視程10km以上
天気現象
全天の4割程度の雲 雲底高度 400m
全天の8割程度の雲 雲底高度 1340m
気温5℃
湿度87%
気圧998hPa
METARUSNN 160730Z 25003MPS 9999 SCT013 BKN044CB 05/03 Q0998 R21/290352 NOSIG RMK QFE744
過去の天気等 Google飛行場航空写真 Wunderground天気予報

過去48時間のMETAR

飛行場予報(TAF)
発表時間: 10/16 10:00 YEKT (10/16 05:00 UTC)
予報対象時間: 16日11時 YEKT ~ 17日11時 YEKT
風向・風速西南西 3m/s 瞬間風速 8m/s
視程5000m
天気現象弱いしゅう雨
全天の8割程度の雲 雲底高度 210m
全天の8割程度の積乱雲 雲底高度 610m
16日11時 YEKT ~ 16日20時 YEKT に一時的に
視程3100m
天気現象弱いしゅう雨
全天の8割程度の雲 雲底高度 150m
全天の8割程度の積乱雲 雲底高度 460m
16日20時 YEKT から
風向・風速西北西 3m/s 瞬間風速 8m/s
視程4000m
天気現象弱いしゅう雪雨
全天の8割程度の雲 雲底高度 300m
全天の4割程度の積乱雲 雲底高度 610m
TAF USNN 160500Z 1606/1706 24003G08MPS 5000 -SHRA BKN007 BKN020CB
TEMPO 1606/1615 3100 -SHRA BKN005 BKN015CB
FM161500 30003G08MPS 4000 -SHSNRA BKN010 SCT020CB